Time;durP1;ratioP1;P1;durP2;ratioP2;P2;SDS_P1;SDS_P2;PMS_P1;PMS_P2;Temp;Humidity;BMP_temperature;BMP_pressure;BME280_temperature;BME280_humidity;BME280_pressure;Samples;Min_cycle;Max_cycle;Signal;HPM_P1;HPM_P2
2022/12/02 06:34:28;;;;;;;;;58.25;41.25;;;;;;;;4717496;30;45334;-59
2022/12/02 06:36:58;;;;;;;;;46.75;37.50;;;;;;;;4718836;30;46725;-59
2022/12/02 06:39:23;;;;;;;;;55.25;42.50;;;;;;;;4719987;30;46925;-59
2022/12/02 06:41:49;;;;;;;;;52.50;40.00;;;;;;;;4719894;30;45476;-59
2022/12/02 06:47:20;;;;;;;;;38.00;28.25;;;;;;;;4720128;30;45308;-58
2022/12/02 06:49:45;;;;;;;;;58.00;45.00;;;;;;;;4717894;30;45748;-59
2022/12/02 06:52:20;;;;;;;;;57.25;39.00;;;;;;;;4718207;30;45490;-60
2022/12/02 06:54:45;;;;;;;;;50.00;40.25;;;;;;;;4712753;30;45592;-59
2022/12/02 06:57:11;;;;;;;;;52.75;41.75;;;;;;;;4706507;30;45289;-59
2022/12/02 06:59:36;;;;;;;;;61.25;43.25;;;;;;;;4707179;30;45454;-59
2022/12/02 07:02:01;;;;;;;;;28.50;15.50;;;;;;;;4714389;30;45474;-59
2022/12/02 07:04:27;;;;;;;;;55.00;34.75;;;;;;;;4707240;30;48345;-59
2022/12/02 07:06:54;;;;;;;;;54.25;41.75;;;;;;;;4719430;30;45586;-59
2022/12/02 07:09:37;;;;;;;;;51.00;41.75;;;;;;;;4718626;30;46407;-59
2022/12/02 07:12:03;;;;;;;;;54.75;40.50;;;;;;;;4718042;30;45242;-59
2022/12/02 07:14:45;;;;;;;;;57.00;41.25;;;;;;;;4718755;30;45841;-59
2022/12/02 07:17:31;;;;;;;;;57.50;42.00;;;;;;;;4720956;30;45612;-59
2022/12/02 07:20:00;;;;;;;;;56.50;43.00;;;;;;;;4717585;30;46096;-59
2022/12/02 07:22:31;;;;;;;;;60.75;45.75;;;;;;;;4719926;30;45609;-60
2022/12/02 07:24:57;;;;;;;;;56.75;43.25;;;;;;;;4715648;30;45388;-60
2022/12/02 07:27:30;;;;;;;;;56.50;45.00;;;;;;;;4714896;30;45356;-59
2022/12/02 07:29:56;;;;;;;;;52.50;41.25;;;;;;;;4717936;30;45418;-59
2022/12/02 07:32:21;;;;;;;;;51.50;40.50;;;;;;;;4719582;30;45388;-59
2022/12/02 07:34:46;;;;;;;;;60.00;43.25;;;;;;;;4720285;30;45430;-58
2022/12/02 07:37:12;;;;;;;;;54.75;41.50;;;;;;;;4719896;30;45444;-59
2022/12/02 07:39:37;;;;;;;;;54.50;44.00;;;;;;;;4715660;30;46345;-59
2022/12/02 07:42:02;;;;;;;;;57.25;42.25;;;;;;;;4719599;30;45266;-59
2022/12/02 07:44:27;;;;;;;;;62.25;45.75;;;;;;;;4706075;30;45620;-59
2022/12/02 07:46:52;;;;;;;;;55.00;41.25;;;;;;;;4719281;30;45258;-59
2022/12/02 07:49:18;;;;;;;;;57.75;44.50;;;;;;;;4718734;30;45713;-59
2022/12/02 07:51:43;;;;;;;;;60.25;43.50;;;;;;;;4719699;30;45753;-62
2022/12/02 07:54:08;;;;;;;;;62.00;44.00;;;;;;;;4717691;30;45154;-60
2022/12/02 07:56:34;;;;;;;;;58.00;43.00;;;;;;;;4714655;30;45452;-61
2022/12/02 07:59:01;;;;;;;;;60.50;44.50;;;;;;;;4704040;30;47176;-58
2022/12/02 08:01:26;;;;;;;;;53.75;42.00;;;;;;;;4713303;30;45383;-59
2022/12/02 08:03:51;;;;;;;;;58.25;45.25;;;;;;;;4719608;30;45296;-59
2022/12/02 08:06:16;;;;;;;;;59.25;45.00;;;;;;;;4719973;30;45538;-59
2022/12/02 08:08:41;;;;;;;;;56.50;43.75;;;;;;;;4719157;30;46033;-59
2022/12/02 08:11:07;;;;;;;;;57.50;42.00;;;;;;;;4718216;30;45623;-58
2022/12/02 08:13:32;;;;;;;;;59.00;45.00;;;;;;;;4719624;30;45433;-58
2022/12/02 08:15:57;;;;;;;;;59.75;42.50;;;;;;;;4724123;30;45368;-59
2022/12/02 08:18:22;;;;;;;;;60.50;47.50;;;;;;;;4718637;30;45351;-59
2022/12/02 08:20:47;;;;;;;;;64.00;47.75;;;;;;;;4711545;30;45451;-59
2022/12/02 08:23:12;;;;;;;;;61.50;45.75;;;;;;;;4727382;30;45521;-58
2022/12/02 08:25:38;;;;;;;;;62.00;47.25;;;;;;;;4724373;30;45486;-60
2022/12/02 08:28:03;;;;;;;;;60.00;48.00;;;;;;;;4715887;30;45486;-59
2022/12/02 08:30:29;;;;;;;;;58.50;46.50;;;;;;;;4722332;30;45538;-59
2022/12/02 08:32:54;;;;;;;;;62.75;47.50;;;;;;;;4724989;30;45378;-59
2022/12/02 08:35:19;;;;;;;;;63.00;48.00;;;;;;;;4718189;30;45464;-59
2022/12/02 08:37:44;;;;;;;;;63.75;47.00;;;;;;;;4720089;30;45691;-59
2022/12/02 08:40:10;;;;;;;;;61.25;48.75;;;;;;;;4717193;30;45261;-59
2022/12/02 08:42:35;;;;;;;;;68.50;47.00;;;;;;;;4717184;30;45266;-59
2022/12/02 08:45:00;;;;;;;;;65.00;47.00;;;;;;;;4721521;30;45471;-59
2022/12/02 08:47:25;;;;;;;;;67.00;46.75;;;;;;;;4718485;30;46176;-59
2022/12/02 08:49:50;;;;;;;;;66.25;51.25;;;;;;;;4715396;30;45600;-59
2022/12/02 08:52:16;;;;;;;;;70.50;50.00;;;;;;;;4714589;30;45534;-58
2022/12/02 08:54:44;;;;;;;;;59.75;44.50;;;;;;;;4719531;30;45688;-60
2022/12/02 08:57:09;;;;;;;;;61.25;47.00;;;;;;;;4719200;30;46613;-60
2022/12/02 08:59:34;;;;;;;;;64.25;48.00;;;;;;;;4723486;30;45371;-60
2022/12/02 09:01:59;;;;;;;;;68.00;51.75;;;;;;;;4718200;30;45658;-59
2022/12/02 09:04:25;;;;;;;;;63.50;48.00;;;;;;;;4713672;30;45546;-59
2022/12/02 09:06:50;;;;;;;;;68.25;48.75;;;;;;;;4719576;30;46129;-59
2022/12/02 09:09:16;;;;;;;;;63.50;49.00;;;;;;;;4714554;30;45310;-59
2022/12/02 09:11:41;;;;;;;;;67.75;48.75;;;;;;;;4713450;30;45434;-59
2022/12/02 09:14:06;;;;;;;;;69.50;50.25;;;;;;;;4722097;30;45399;-59
2022/12/02 09:16:31;;;;;;;;;63.00;47.25;;;;;;;;4707881;30;46596;-59
2022/12/02 09:18:57;;;;;;;;;65.25;48.00;;;;;;;;4720113;30;45393;-59
2022/12/02 09:21:22;;;;;;;;;62.25;47.00;;;;;;;;4718041;30;45515;-59
2022/12/02 09:23:47;;;;;;;;;68.50;50.00;;;;;;;;4719816;30;45261;-59
2022/12/02 09:26:12;;;;;;;;;63.50;48.00;;;;;;;;4719967;30;46301;-58
2022/12/02 09:28:37;;;;;;;;;67.00;46.00;;;;;;;;4719382;30;45281;-58
2022/12/02 09:31:03;;;;;;;;;65.00;50.25;;;;;;;;4724467;30;45506;-59
2022/12/02 09:33:28;;;;;;;;;63.50;51.00;;;;;;;;4714950;30;45450;-59
2022/12/02 09:35:53;;;;;;;;;68.50;48.25;;;;;;;;4719282;30;45599;-60
2022/12/02 09:38:18;;;;;;;;;66.25;48.25;;;;;;;;4721396;30;45394;-60
2022/12/02 09:40:43;;;;;;;;;66.75;50.00;;;;;;;;4724246;30;45324;-59
2022/12/02 09:43:09;;;;;;;;;59.50;47.25;;;;;;;;4727175;30;45433;-59
2022/12/02 09:45:34;;;;;;;;;59.50;48.50;;;;;;;;4719987;30;45565;-59
2022/12/02 09:47:59;;;;;;;;;67.75;50.00;;;;;;;;4719454;30;45555;-60
2022/12/02 09:50:25;;;;;;;;;67.00;50.00;;;;;;;;4716356;30;45364;-59
2022/12/02 09:52:50;;;;;;;;;67.50;48.00;;;;;;;;4704017;30;45408;-59
2022/12/02 09:55:17;;;;;;;;;66.50;48.50;;;;;;;;4725893;30;46129;-59
2022/12/02 09:57:43;;;;;;;;;72.75;51.50;;;;;;;;4721525;30;45430;-59
2022/12/02 10:00:13;;;;;;;;;66.50;49.75;;;;;;;;4718844;30;45275;-59
2022/12/02 10:02:38;;;;;;;;;52.50;34.75;;;;;;;;4721657;30;45584;-59
2022/12/02 10:05:16;;;;;;;;;66.25;49.50;;;;;;;;4728289;30;47037;-59
2022/12/02 10:07:42;;;;;;;;;64.75;51.50;;;;;;;;4729505;30;45327;-59
2022/12/02 10:10:10;;;;;;;;;65.25;49.50;;;;;;;;4721738;30;45361;-59
2022/12/02 10:12:35;;;;;;;;;71.25;49.75;;;;;;;;4698342;30;45274;-59
2022/12/02 10:15:00;;;;;;;;;73.00;51.00;;;;;;;;4713270;30;45412;-59
2022/12/02 10:17:26;;;;;;;;;69.75;50.25;;;;;;;;4720993;30;45656;-59
2022/12/02 10:19:51;;;;;;;;;76.50;52.00;;;;;;;;4726400;30;45454;-58
2022/12/02 10:22:20;;;;;;;;;64.00;50.25;;;;;;;;4725168;30;45498;-58
2022/12/02 10:24:45;;;;;;;;;71.00;50.25;;;;;;;;4721192;30;45494;-59
2022/12/02 10:27:30;;;;;;;;;65.75;52.50;;;;;;;;4725516;30;45414;-59
2022/12/02 10:30:26;;;;;;;;;68.25;49.50;;;;;;;;4718956;30;45505;-59
2022/12/02 10:32:58;;;;;;;;;60.00;49.00;;;;;;;;4701371;30;45482;-59
2022/12/02 10:35:24;;;;;;;;;64.00;45.75;;;;;;;;4720739;30;47166;-59
2022/12/02 10:37:49;;;;;;;;;66.50;49.75;;;;;;;;4728672;30;45659;-59
2022/12/02 10:40:21;;;;;;;;;65.25;48.25;;;;;;;;4721019;30;45328;-59
2022/12/02 10:43:05;;;;;;;;;64.75;49.00;;;;;;;;4721172;30;45661;-59
2022/12/02 10:45:30;;;;;;;;;71.50;52.50;;;;;;;;4720543;30;46321;-59
2022/12/02 10:48:10;;;;;;;;;65.00;50.50;;;;;;;;4721172;30;45306;-59
2022/12/02 10:50:35;;;;;;;;;66.50;50.75;;;;;;;;4721061;30;45305;-59
2022/12/02 10:53:01;;;;;;;;;65.75;49.75;;;;;;;;4713494;30;45451;-59
2022/12/02 10:55:26;;;;;;;;;68.50;50.50;;;;;;;;4715910;30;46151;-59
2022/12/02 10:57:52;;;;;;;;;59.75;45.50;;;;;;;;4720228;30;45350;-59
2022/12/02 11:00:17;;;;;;;;;65.25;49.00;;;;;;;;4720333;30;45383;-59
2022/12/02 11:02:47;;;;;;;;;65.75;50.25;;;;;;;;4721060;30;45649;-60
2022/12/02 11:05:20;;;;;;;;;55.25;45.75;;;;;;;;4720841;30;46289;-60
2022/12/02 11:07:54;;;;;;;;;66.50;46.00;;;;;;;;4704739;30;45380;-60
2022/12/02 11:10:20;;;;;;;;;65.50;50.25;;;;;;;;4720389;30;45599;-60
2022/12/02 11:12:52;;;;;;;;;59.25;47.25;;;;;;;;4719374;30;45285;-60
2022/12/02 11:15:35;;;;;;;;;67.00;47.25;;;;;;;;4719864;30;46051;-60
2022/12/02 11:18:01;;;;;;;;;68.75;51.00;;;;;;;;4720276;30;45339;-60
2022/12/02 11:20:43;;;;;;;;;59.75;48.25;;;;;;;;4720367;30;45522;-60
2022/12/02 11:23:15;;;;;;;;;60.25;47.75;;;;;;;;4720124;30;45530;-60
2022/12/02 11:25:41;;;;;;;;;67.00;49.50;;;;;;;;4716414;30;45413;-60
2022/12/02 11:28:25;;;;;;;;;56.00;44.00;;;;;;;;4720313;30;45289;-60
2022/12/02 11:31:10;;;;;;;;;60.75;50.25;;;;;;;;4709285;30;45412;-60
2022/12/02 11:34:00;;;;;;;;;63.75;48.25;;;;;;;;4718867;30;45291;-60
2022/12/02 11:36:27;;;;;;;;;61.25;46.00;;;;;;;;4717587;30;46994;-60
2022/12/02 11:38:52;;;;;;;;;60.75;44.25;;;;;;;;4723394;30;45396;-60
2022/12/02 11:41:21;;;;;;;;;66.50;48.00;;;;;;;;4728731;30;45427;-60
2022/12/02 11:43:46;;;;;;;;;68.50;50.50;;;;;;;;4724947;30;45295;-61
2022/12/02 11:46:16;;;;;;;;;64.25;46.75;;;;;;;;4707868;30;45704;-61
2022/12/02 11:48:54;;;;;;;;;61.25;49.50;;;;;;;;4705129;30;45448;-59
2022/12/02 11:51:36;;;;;;;;;60.00;46.75;;;;;;;;4717303;30;45435;-59
2022/12/02 11:54:01;;;;;;;;;68.50;51.00;;;;;;;;4719455;30;45515;-59
2022/12/02 11:56:34;;;;;;;;;61.50;47.00;;;;;;;;4714109;30;45972;-59
2022/12/02 11:58:59;;;;;;;;;62.25;48.00;;;;;;;;4717754;30;45439;-59
2022/12/02 12:01:24;;;;;;;;;66.50;47.00;;;;;;;;4719717;30;45536;-59
2022/12/02 12:03:51;;;;;;;;;64.75;51.00;;;;;;;;4718307;30;45288;-59
2022/12/02 12:06:20;;;;;;;;;67.50;48.75;;;;;;;;4719339;30;45322;-59
2022/12/02 12:08:49;;;;;;;;;67.75;49.00;;;;;;;;4718168;30;45391;-58
2022/12/02 12:11:14;;;;;;;;;63.75;47.75;;;;;;;;4712405;30;45411;-58
2022/12/02 12:13:58;;;;;;;;;63.75;47.00;;;;;;;;4719942;30;45307;-59
2022/12/02 12:16:24;;;;;;;;;59.50;44.00;;;;;;;;4713933;30;45352;-59
2022/12/02 12:18:49;;;;;;;;;66.50;49.00;;;;;;;;4719513;30;45343;-58
2022/12/02 12:21:30;;;;;;;;;66.00;48.50;;;;;;;;4708691;30;45763;-59
2022/12/02 12:24:19;;;;;;;;;62.00;48.50;;;;;;;;4714129;30;45241;-58
2022/12/02 12:26:45;;;;;;;;;65.00;49.00;;;;;;;;4715797;30;46347;-59
2022/12/02 12:29:11;;;;;;;;;64.50;48.75;;;;;;;;4718935;30;45403;-59
2022/12/02 12:31:36;;;;;;;;;65.00;50.25;;;;;;;;4701672;30;45364;-58
2022/12/02 12:34:02;;;;;;;;;63.50;44.75;;;;;;;;4719925;30;45465;-58
2022/12/02 12:36:27;;;;;;;;;73.00;51.25;;;;;;;;4719525;30;46294;-59
2022/12/02 12:38:52;;;;;;;;;63.75;48.50;;;;;;;;4719989;30;45369;-58
2022/12/02 12:41:17;;;;;;;;;64.00;48.00;;;;;;;;4719835;30;45200;-58
2022/12/02 12:43:43;;;;;;;;;54.00;38.00;;;;;;;;4696386;30;45585;-59
2022/12/02 12:46:08;;;;;;;;;62.25;47.75;;;;;;;;4717133;30;46918;-58
2022/12/02 12:48:33;;;;;;;;;63.75;47.50;;;;;;;;4717896;30;45623;-59
2022/12/02 12:50:58;;;;;;;;;59.50;46.50;;;;;;;;4714379;30;45697;-59
2022/12/02 12:53:23;;;;;;;;;62.00;47.75;;;;;;;;4713222;30;45344;-59
2022/12/02 12:55:49;;;;;;;;;61.50;44.75;;;;;;;;4714450;30;45429;-58
2022/12/02 12:58:14;;;;;;;;;57.00;45.50;;;;;;;;4715906;30;45365;-59
2022/12/02 13:00:39;;;;;;;;;65.00;47.75;;;;;;;;4718702;30;45836;-58
2022/12/02 13:03:05;;;;;;;;;58.25;43.50;;;;;;;;4719234;30;45433;-59
2022/12/02 13:05:30;;;;;;;;;63.50;47.25;;;;;;;;4718679;30;46289;-59
2022/12/02 13:07:56;;;;;;;;;63.25;51.00;;;;;;;;4715597;30;45439;-59
2022/12/02 13:10:21;;;;;;;;;68.75;50.25;;;;;;;;4714385;30;45433;-59
2022/12/02 13:12:46;;;;;;;;;66.50;45.25;;;;;;;;4706564;30;45499;-59
2022/12/02 13:15:12;;;;;;;;;63.75;45.50;;;;;;;;4715740;30;45564;-59
2022/12/02 13:17:37;;;;;;;;;64.00;45.00;;;;;;;;4724277;30;45366;-59
2022/12/02 13:20:02;;;;;;;;;64.25;47.75;;;;;;;;4713802;30;45665;-59
2022/12/02 13:22:28;;;;;;;;;63.00;48.00;;;;;;;;4717747;30;45556;-59
2022/12/02 13:24:53;;;;;;;;;60.00;45.75;;;;;;;;4715148;30;46519;-59
2022/12/02 13:27:18;;;;;;;;;64.50;50.00;;;;;;;;4713600;30;45517;-59
2022/12/02 13:29:43;;;;;;;;;66.75;48.25;;;;;;;;4712127;30;46926;-59
2022/12/02 13:32:09;;;;;;;;;65.75;47.25;;;;;;;;4717446;30;45398;-59
2022/12/02 13:34:34;;;;;;;;;58.75;46.00;;;;;;;;4722862;30;46280;-59
2022/12/02 13:36:59;;;;;;;;;59.25;48.00;;;;;;;;4713668;30;45931;-58
2022/12/02 13:39:24;;;;;;;;;69.75;50.75;;;;;;;;4698633;30;45459;-58
2022/12/02 13:41:49;;;;;;;;;65.50;47.50;;;;;;;;4701817;30;45451;-61
2022/12/02 13:44:15;;;;;;;;;69.00;51.75;;;;;;;;4703828;30;45653;-59
2022/12/02 13:46:40;;;;;;;;;67.50;50.75;;;;;;;;4721251;30;45451;-60
2022/12/02 13:49:05;;;;;;;;;74.50;50.00;;;;;;;;4721926;30;45350;-59
2022/12/02 13:51:30;;;;;;;;;66.75;51.00;;;;;;;;4715284;30;45439;-59
2022/12/02 13:53:55;;;;;;;;;65.00;46.50;;;;;;;;4702629;30;46037;-60
2022/12/02 13:56:21;;;;;;;;;65.00;47.25;;;;;;;;4713536;30;45764;-60
2022/12/02 13:58:46;;;;;;;;;72.75;50.25;;;;;;;;4715823;30;45501;-59
2022/12/02 14:01:13;;;;;;;;;62.50;43.75;;;;;;;;4711935;30;46105;-59
2022/12/02 14:03:38;;;;;;;;;61.50;44.75;;;;;;;;4717100;30;45495;-59
2022/12/02 14:06:04;;;;;;;;;64.00;48.25;;;;;;;;4713705;30;45751;-60
2022/12/02 14:08:29;;;;;;;;;69.50;48.00;;;;;;;;4713455;30;45300;-59
2022/12/02 14:10:54;;;;;;;;;66.50;51.75;;;;;;;;4716437;30;46054;-60
2022/12/02 14:13:19;;;;;;;;;65.75;50.25;;;;;;;;4715618;30;45448;-59
2022/12/02 14:15:44;;;;;;;;;59.00;45.50;;;;;;;;4706422;30;45531;-59
2022/12/02 14:18:09;;;;;;;;;64.50;49.00;;;;;;;;4697739;30;45467;-59
2022/12/02 14:20:35;;;;;;;;;68.75;50.00;;;;;;;;4701965;30;45815;-60
2022/12/02 14:23:00;;;;;;;;;62.00;47.00;;;;;;;;4709171;30;45430;-60
2022/12/02 14:25:25;;;;;;;;;62.50;47.50;;;;;;;;4706325;30;45756;-59
2022/12/02 14:27:50;;;;;;;;;67.25;49.75;;;;;;;;4722628;30;45722;-60
2022/12/02 14:30:18;;;;;;;;;65.25;50.00;;;;;;;;4717313;30;45471;-60
2022/12/02 14:32:44;;;;;;;;;66.25;46.75;;;;;;;;4712141;30;46416;-59
2022/12/02 14:35:09;;;;;;;;;73.75;55.00;;;;;;;;4699575;30;45606;-59
2022/12/02 14:37:34;;;;;;;;;65.00;45.75;;;;;;;;4715025;30;45485;-58
2022/12/02 14:40:02;;;;;;;;;66.50;47.25;;;;;;;;4720566;30;45459;-58
2022/12/02 14:42:28;;;;;;;;;65.75;49.50;;;;;;;;4701688;30;48213;-58
2022/12/02 14:44:53;;;;;;;;;70.00;48.75;;;;;;;;4710095;30;46609;-58
2022/12/02 14:47:18;;;;;;;;;59.50;48.00;;;;;;;;4717957;30;45225;-59
2022/12/02 14:49:44;;;;;;;;;71.00;51.25;;;;;;;;4720640;30;45697;-58
2022/12/02 14:52:10;;;;;;;;;60.25;43.75;;;;;;;;4717579;30;45616;-58
2022/12/02 14:54:35;;;;;;;;;59.50;46.50;;;;;;;;4716936;30;45502;-59
2022/12/02 14:57:00;;;;;;;;;68.00;47.25;;;;;;;;4719798;30;45597;-59
2022/12/02 14:59:25;;;;;;;;;56.25;45.75;;;;;;;;4715894;30;45515;-59
2022/12/02 15:01:51;;;;;;;;;60.50;46.00;;;;;;;;4714718;30;45362;-59
2022/12/02 15:04:16;;;;;;;;;60.50;47.50;;;;;;;;4719758;30;45326;-59
2022/12/02 15:06:43;;;;;;;;;59.75;44.75;;;;;;;;4721390;30;45727;-59
2022/12/02 15:09:08;;;;;;;;;63.25;46.75;;;;;;;;4715041;30;45550;-59
2022/12/02 15:11:34;;;;;;;;;70.50;50.50;;;;;;;;4715971;30;45860;-59
2022/12/02 15:13:59;;;;;;;;;57.00;43.75;;;;;;;;4705349;30;45475;-59
2022/12/02 15:16:24;;;;;;;;;79.50;57.00;;;;;;;;4710555;30;45463;-59
2022/12/02 15:18:49;;;;;;;;;76.50;57.00;;;;;;;;4724363;30;46372;-59
2022/12/02 15:21:14;;;;;;;;;67.25;50.75;;;;;;;;4716512;30;45675;-58
2022/12/02 15:23:40;;;;;;;;;65.50;49.50;;;;;;;;4717151;30;45528;-59
2022/12/02 15:26:05;;;;;;;;;64.00;49.25;;;;;;;;4719731;30;45548;-59
2022/12/02 15:28:30;;;;;;;;;64.50;49.00;;;;;;;;4727876;30;45419;-58
2022/12/02 15:30:55;;;;;;;;;65.50;46.25;;;;;;;;4718386;30;46299;-59
2022/12/02 15:33:20;;;;;;;;;65.25;46.50;;;;;;;;4715924;30;45523;-59
2022/12/02 15:35:46;;;;;;;;;65.50;50.00;;;;;;;;4717893;30;45409;-59
2022/12/02 15:38:11;;;;;;;;;52.75;43.00;;;;;;;;4715576;30;45305;-59
2022/12/02 15:40:38;;;;;;;;;56.00;43.25;;;;;;;;4723142;30;45586;-59
2022/12/02 15:43:03;;;;;;;;;66.75;49.50;;;;;;;;4720932;30;45464;-59
2022/12/02 15:45:28;;;;;;;;;54.50;44.75;;;;;;;;4720300;30;46044;-59
2022/12/02 15:47:53;;;;;;;;;56.50;42.50;;;;;;;;4720117;30;45605;-59
2022/12/02 15:50:18;;;;;;;;;53.75;43.50;;;;;;;;4720009;30;45585;-59
2022/12/02 15:52:44;;;;;;;;;51.75;38.50;;;;;;;;4717476;30;45355;-59
2022/12/02 15:55:09;;;;;;;;;52.00;37.00;;;;;;;;4719808;30;45415;-59
2022/12/02 15:57:34;;;;;;;;;63.25;44.25;;;;;;;;4714508;30;45463;-59
2022/12/02 16:00:00;;;;;;;;;64.25;48.25;;;;;;;;4714758;30;47397;-59
2022/12/02 16:02:25;;;;;;;;;59.75;44.50;;;;;;;;4714721;30;45897;-59
2022/12/02 16:04:51;;;;;;;;;42.25;35.25;;;;;;;;4719402;30;45514;-58
2022/12/02 16:07:17;;;;;;;;;53.25;39.00;;;;;;;;4721289;30;45557;-59
2022/12/02 16:09:42;;;;;;;;;50.75;38.75;;;;;;;;4722396;30;46379;-59
2022/12/02 16:12:08;;;;;;;;;52.25;28.75;;;;;;;;4716115;30;46806;-59
2022/12/02 16:14:33;;;;;;;;;32.50;21.50;;;;;;;;4715031;30;45741;-59
2022/12/02 16:16:58;;;;;;;;;56.75;41.50;;;;;;;;4718215;30;45630;-59
2022/12/02 16:19:23;;;;;;;;;54.50;40.25;;;;;;;;4717455;30;46262;-59
2022/12/02 16:21:48;;;;;;;;;54.25;37.75;;;;;;;;4722664;30;45693;-58
2022/12/02 16:24:14;;;;;;;;;54.00;38.00;;;;;;;;4723650;30;45414;-58
2022/12/02 16:26:39;;;;;;;;;47.00;34.75;;;;;;;;4719408;30;45395;-58
2022/12/02 16:29:04;;;;;;;;;53.00;39.50;;;;;;;;4718988;30;46663;-61
2022/12/02 16:31:29;;;;;;;;;52.50;41.00;;;;;;;;4719003;30;45683;-60
2022/12/02 16:33:54;;;;;;;;;54.25;37.50;;;;;;;;4722436;30;45360;-55
2022/12/02 16:36:20;;;;;;;;;54.50;38.50;;;;;;;;4722443;30;45567;-58
2022/12/02 16:38:45;;;;;;;;;52.25;41.00;;;;;;;;4720867;30;46640;-57
2022/12/02 16:41:10;;;;;;;;;43.00;30.75;;;;;;;;4716316;30;45496;-57
2022/12/02 16:43:35;;;;;;;;;56.00;37.25;;;;;;;;4715860;30;45391;-59
2022/12/02 16:46:00;;;;;;;;;60.25;41.50;;;;;;;;4716805;30;45637;-59
2022/12/02 16:48:26;;;;;;;;;53.25;39.00;;;;;;;;4709499;30;46676;-60
2022/12/02 16:50:52;;;;;;;;;54.00;39.00;;;;;;;;4711369;30;45348;-59
2022/12/02 16:53:17;;;;;;;;;59.00;43.25;;;;;;;;4716481;30;45316;-59
2022/12/02 16:55:42;;;;;;;;;36.00;27.75;;;;;;;;4717132;30;45406;-59
2022/12/02 16:58:07;;;;;;;;;47.25;38.00;;;;;;;;4716210;30;46303;-59
2022/12/02 17:00:32;;;;;;;;;46.75;35.50;;;;;;;;4716255;30;45451;-60
2022/12/02 17:02:58;;;;;;;;;54.00;40.75;;;;;;;;4719398;30;45282;-60
2022/12/02 17:05:23;;;;;;;;;28.75;25.75;;;;;;;;4718954;30;45240;-60
2022/12/02 17:07:49;;;;;;;;;53.75;38.25;;;;;;;;4719447;30;46188;-60
2022/12/02 17:10:15;;;;;;;;;56.50;38.00;;;;;;;;4711671;30;45469;-60
2022/12/02 17:12:40;;;;;;;;;47.00;35.50;;;;;;;;4713678;30;45448;-59
2022/12/02 17:15:05;;;;;;;;;44.25;34.25;;;;;;;;4711607;30;45490;-59
2022/12/02 17:17:31;;;;;;;;;40.75;35.25;;;;;;;;4719164;30;45714;-59
2022/12/02 17:19:56;;;;;;;;;58.25;39.00;;;;;;;;4707045;30;45688;-59
2022/12/02 17:22:21;;;;;;;;;50.75;36.25;;;;;;;;4700149;30;45779;-61
2022/12/02 17:24:46;;;;;;;;;53.25;38.75;;;;;;;;4715127;30;45367;-68
2022/12/02 17:27:12;;;;;;;;;40.00;31.75;;;;;;;;4707619;30;46207;-65
2022/12/02 17:29:37;;;;;;;;;44.50;32.00;;;;;;;;4710001;30;45939;-65
2022/12/02 17:32:02;;;;;;;;;41.75;35.75;;;;;;;;4712409;30;45449;-65
2022/12/02 17:34:27;;;;;;;;;48.75;33.50;;;;;;;;4713896;30;45424;-63
2022/12/02 17:36:52;;;;;;;;;39.50;34.75;;;;;;;;4715619;30;45784;-64
2022/12/02 17:39:18;;;;;;;;;45.75;31.50;;;;;;;;4710366;30;45486;-66
2022/12/02 17:41:43;;;;;;;;;36.33;31.00;;;;;;;;4711792;30;45854;-62
2022/12/02 17:44:09;;;;;;;;;44.25;35.25;;;;;;;;4713015;30;45565;-62
2022/12/02 17:46:34;;;;;;;;;42.75;34.50;;;;;;;;4715854;30;46753;-62
2022/12/02 17:49:00;;;;;;;;;47.25;35.25;;;;;;;;4713733;30;45489;-65
2022/12/02 17:51:25;;;;;;;;;44.25;36.25;;;;;;;;4713632;30;45452;-66
2022/12/02 17:53:50;;;;;;;;;49.25;38.25;;;;;;;;4712643;30;45613;-61
2022/12/02 17:56:15;;;;;;;;;43.25;31.75;;;;;;;;4714625;30;45979;-70
2022/12/02 17:58:41;;;;;;;;;42.75;35.50;;;;;;;;4715403;30;45347;-62
2022/12/02 18:01:06;;;;;;;;;45.00;33.75;;;;;;;;4714497;30;45699;-64
2022/12/02 18:03:31;;;;;;;;;44.75;36.25;;;;;;;;4714051;30;45480;-65
2022/12/02 18:05:56;;;;;;;;;42.75;35.00;;;;;;;;4714531;30;46377;-63
2022/12/02 18:08:21;;;;;;;;;52.75;39.50;;;;;;;;4715455;30;45479;-63
2022/12/02 18:10:47;;;;;;;;;43.00;36.25;;;;;;;;4716645;30;45755;-65
2022/12/02 18:13:13;;;;;;;;;47.50;39.00;;;;;;;;4696307;30;45492;-64
2022/12/02 18:15:38;;;;;;;;;49.25;39.75;;;;;;;;4701032;30;45884;-65
2022/12/02 18:18:03;;;;;;;;;54.50;40.00;;;;;;;;4715351;30;45757;-64
2022/12/02 18:20:31;;;;;;;;;47.50;36.75;;;;;;;;4715585;30;46376;-60
2022/12/02 18:22:57;;;;;;;;;33.25;30.25;;;;;;;;4717492;30;45550;-59
2022/12/02 18:25:22;;;;;;;;;57.50;43.50;;;;;;;;4716338;30;45850;-60
2022/12/02 18:27:47;;;;;;;;;52.75;43.50;;;;;;;;4712132;30;46118;-60
2022/12/02 18:30:13;;;;;;;;;51.75;42.00;;;;;;;;4708504;30;45472;-59
2022/12/02 18:32:38;;;;;;;;;52.00;41.75;;;;;;;;4717616;30;45404;-60
2022/12/02 18:35:04;;;;;;;;;50.25;38.75;;;;;;;;4714904;30;45618;-61
2022/12/02 18:37:29;;;;;;;;;60.50;45.00;;;;;;;;4719172;30;45424;-59
2022/12/02 18:39:54;;;;;;;;;59.25;42.25;;;;;;;;4717985;30;45601;-59
2022/12/02 18:42:19;;;;;;;;;53.50;43.50;;;;;;;;4715350;30;45682;-60
2022/12/02 18:44:44;;;;;;;;;58.75;41.50;;;;;;;;4711566;30;46005;-59
2022/12/02 18:47:10;;;;;;;;;56.00;41.25;;;;;;;;4709928;30;45537;-59
2022/12/02 18:49:35;;;;;;;;;52.50;42.00;;;;;;;;4717703;30;45506;-58
2022/12/02 18:52:01;;;;;;;;;57.75;43.00;;;;;;;;4718758;30;45721;-57
2022/12/02 18:54:26;;;;;;;;;53.00;42.75;;;;;;;;4703183;30;45923;-59
2022/12/02 18:56:51;;;;;;;;;60.75;47.50;;;;;;;;4716832;30;45590;-59
2022/12/02 18:59:17;;;;;;;;;55.25;44.00;;;;;;;;4718057;30;45390;-58
2022/12/02 19:01:42;;;;;;;;;67.50;50.50;;;;;;;;4702345;30;45635;-58
2022/12/02 19:04:08;;;;;;;;;58.75;44.50;;;;;;;;4712424;30;45909;-58
2022/12/02 19:06:33;;;;;;;;;53.25;40.00;;;;;;;;4714956;30;45317;-58
2022/12/02 19:08:58;;;;;;;;;47.25;38.25;;;;;;;;4711782;30;45586;-58
2022/12/02 19:11:23;;;;;;;;;55.25;42.75;;;;;;;;4710764;30;45775;-59
2022/12/02 19:13:49;;;;;;;;;50.75;39.25;;;;;;;;4680941;30;45873;-58
2022/12/02 19:16:14;;;;;;;;;54.00;42.50;;;;;;;;4716550;30;45253;-57
2022/12/02 19:18:39;;;;;;;;;56.25;39.75;;;;;;;;4718334;30;45765;-59
2022/12/02 19:21:04;;;;;;;;;54.00;41.75;;;;;;;;4720523;30;45547;-58
2022/12/02 19:23:30;;;;;;;;;59.25;41.25;;;;;;;;4709655;30;46034;-57
2022/12/02 19:25:55;;;;;;;;;52.25;38.25;;;;;;;;4713224;30;45290;-58
2022/12/02 19:28:22;;;;;;;;;55.75;42.25;;;;;;;;4712690;30;45219;-58
2022/12/02 19:30:47;;;;;;;;;48.50;37.50;;;;;;;;4720269;30;45510;-58
2022/12/02 19:33:12;;;;;;;;;59.75;43.75;;;;;;;;4720482;30;46207;-57
2022/12/02 19:35:37;;;;;;;;;54.25;41.25;;;;;;;;4717788;30;45421;-55
2022/12/02 19:38:02;;;;;;;;;57.00;43.00;;;;;;;;4719711;30;45626;-57
2022/12/02 19:40:28;;;;;;;;;50.50;40.75;;;;;;;;4715758;30;45904;-60
2022/12/02 19:42:53;;;;;;;;;53.75;41.75;;;;;;;;4710276;30;45763;-59
2022/12/02 19:45:18;;;;;;;;;48.25;38.00;;;;;;;;4719514;30;45356;-60
2022/12/02 19:47:43;;;;;;;;;52.50;39.75;;;;;;;;4720314;30;45340;-60
2022/12/02 19:50:09;;;;;;;;;53.75;42.00;;;;;;;;4712787;30;45363;-60
2022/12/02 19:52:34;;;;;;;;;44.00;37.75;;;;;;;;4713829;30;46337;-60
2022/12/02 19:54:59;;;;;;;;;55.25;36.50;;;;;;;;4720263;30;45546;-59
2022/12/02 19:57:25;;;;;;;;;50.25;42.25;;;;;;;;4720139;30;45275;-60
2022/12/02 19:59:50;;;;;;;;;45.50;37.50;;;;;;;;4704853;30;45467;-59
2022/12/02 20:02:16;;;;;;;;;47.75;36.00;;;;;;;;4719754;30;45514;-59
2022/12/02 20:04:41;;;;;;;;;53.25;40.00;;;;;;;;4719544;30;45534;-59
2022/12/02 20:07:06;;;;;;;;;53.75;40.00;;;;;;;;4715067;30;45312;-59
2022/12/02 20:09:31;;;;;;;;;51.25;38.00;;;;;;;;4714335;30;47111;-60
2022/12/02 20:11:56;;;;;;;;;50.00;38.50;;;;;;;;4717134;30;45534;-59
2022/12/02 20:14:22;;;;;;;;;41.25;36.00;;;;;;;;4706949;30;45331;-58
2022/12/02 20:16:47;;;;;;;;;52.00;38.25;;;;;;;;4709791;30;45490;-59
2022/12/02 20:19:12;;;;;;;;;50.50;37.75;;;;;;;;4715424;30;45408;-59
2022/12/02 20:21:37;;;;;;;;;44.00;37.75;;;;;;;;4721076;30;45570;-60
2022/12/02 20:24:03;;;;;;;;;58.00;39.25;;;;;;;;4708975;30;45407;-60
2022/12/02 20:26:29;;;;;;;;;43.00;35.00;;;;;;;;4716358;30;45723;-59
2022/12/02 20:28:54;;;;;;;;;54.25;38.25;;;;;;;;4702812;30;45570;-59
2022/12/02 20:31:19;;;;;;;;;34.00;28.75;;;;;;;;4715925;30;45514;-58
2022/12/02 20:33:44;;;;;;;;;47.25;36.00;;;;;;;;4717721;30;46847;-59
2022/12/02 20:36:10;;;;;;;;;34.50;31.00;;;;;;;;4720019;30;45301;-59
2022/12/02 20:38:35;;;;;;;;;30.00;27.75;;;;;;;;4715448;30;45462;-58
2022/12/02 20:41:00;;;;;;;;;36.50;30.75;;;;;;;;4716037;30;46733;-59
2022/12/02 20:43:25;;;;;;;;;35.25;29.25;;;;;;;;4707679;30;45206;-59
2022/12/02 20:45:50;;;;;;;;;25.75;23.25;;;;;;;;4718593;30;45193;-59
2022/12/02 20:48:16;;;;;;;;;38.00;28.00;;;;;;;;4706278;30;45289;-59